sensor_id;sensor_type;location;lat;lon;timestamp;P1;durP1;ratioP1;P2;durP2;ratioP2
45466;SDS011;31212;49.734;8.490;2022-10-31T00:00:52;15.85;;;6.18;;
45466;SDS011;31212;49.734;8.490;2022-10-31T00:03:19;10.18;;;5.57;;
45466;SDS011;31212;49.734;8.490;2022-10-31T00:05:46;13.95;;;5.72;;
45466;SDS011;31212;49.734;8.490;2022-10-31T00:08:14;10.07;;;6.03;;
45466;SDS011;31212;49.734;8.490;2022-10-31T00:10:41;12.18;;;5.65;;
45466;SDS011;31212;49.734;8.490;2022-10-31T00:13:11;9.05;;;5.80;;
45466;SDS011;31212;49.734;8.490;2022-10-31T00:15:39;10.38;;;5.97;;
45466;SDS011;31212;49.734;8.490;2022-10-31T00:18:07;9.32;;;5.43;;
45466;SDS011;31212;49.734;8.490;2022-10-31T00:20:34;12.27;;;6.07;;
45466;SDS011;31212;49.734;8.490;2022-10-31T00:23:02;15.82;;;6.03;;
45466;SDS011;31212;49.734;8.490;2022-10-31T00:25:32;11.50;;;6.03;;
45466;SDS011;31212;49.734;8.490;2022-10-31T00:27:59;10.95;;;6.22;;
45466;SDS011;31212;49.734;8.490;2022-10-31T00:30:27;8.60;;;5.13;;
45466;SDS011;31212;49.734;8.490;2022-10-31T00:32:54;11.45;;;5.18;;
45466;SDS011;31212;49.734;8.490;2022-10-31T00:35:20;14.85;;;5.03;;
45466;SDS011;31212;49.734;8.490;2022-10-31T00:37:47;10.80;;;4.93;;
45466;SDS011;31212;49.734;8.490;2022-10-31T00:40:13;10.82;;;4.35;;
45466;SDS011;31212;49.734;8.490;2022-10-31T00:42:40;6.05;;;3.80;;
45466;SDS011;31212;49.734;8.490;2022-10-31T00:45:08;13.05;;;5.10;;
45466;SDS011;31212;49.734;8.490;2022-10-31T00:47:37;9.98;;;5.13;;
45466;SDS011;31212;49.734;8.490;2022-10-31T00:50:04;9.25;;;5.25;;
45466;SDS011;31212;49.734;8.490;2022-10-31T00:52:31;10.80;;;4.80;;
45466;SDS011;31212;49.734;8.490;2022-10-31T00:54:58;6.70;;;4.18;;
45466;SDS011;31212;49.734;8.490;2022-10-31T00:57:24;18.00;;;4.53;;
45466;SDS011;31212;49.734;8.490;2022-10-31T00:59:51;10.82;;;4.78;;
45466;SDS011;31212;49.734;8.490;2022-10-31T01:02:18;20.00;;;5.05;;
45466;SDS011;31212;49.734;8.490;2022-10-31T01:04:46;9.20;;;5.22;;
45466;SDS011;31212;49.734;8.490;2022-10-31T01:07:12;8.82;;;4.57;;
45466;SDS011;31212;49.734;8.490;2022-10-31T01:09:39;7.22;;;4.35;;
45466;SDS011;31212;49.734;8.490;2022-10-31T01:12:05;12.60;;;4.50;;
45466;SDS011;31212;49.734;8.490;2022-10-31T01:14:32;7.10;;;4.00;;
45466;SDS011;31212;49.734;8.490;2022-10-31T01:16:59;7.60;;;4.07;;
45466;SDS011;31212;49.734;8.490;2022-10-31T01:19:26;8.95;;;3.83;;
45466;SDS011;31212;49.734;8.490;2022-10-31T01:21:56;10.25;;;4.15;;
45466;SDS011;31212;49.734;8.490;2022-10-31T01:24:28;9.18;;;5.18;;
45466;SDS011;31212;49.734;8.490;2022-10-31T01:26:54;8.10;;;4.18;;
45466;SDS011;31212;49.734;8.490;2022-10-31T01:29:21;11.73;;;4.22;;
45466;SDS011;31212;49.734;8.490;2022-10-31T01:31:48;7.35;;;4.85;;
45466;SDS011;31212;49.734;8.490;2022-10-31T01:34:15;10.65;;;4.25;;
45466;SDS011;31212;49.734;8.490;2022-10-31T01:36:44;7.38;;;3.70;;
45466;SDS011;31212;49.734;8.490;2022-10-31T01:39:14;17.05;;;4.72;;
45466;SDS011;31212;49.734;8.490;2022-10-31T01:41:41;7.80;;;3.65;;
45466;SDS011;31212;49.734;8.490;2022-10-31T01:47:14;6.32;;;4.43;;
45466;SDS011;31212;49.734;8.490;2022-10-31T01:49:43;8.80;;;4.03;;
45466;SDS011;31212;49.734;8.490;2022-10-31T01:52:16;7.15;;;3.90;;
45466;SDS011;31212;49.734;8.490;2022-10-31T01:54:48;7.50;;;3.30;;
45466;SDS011;31212;49.734;8.490;2022-10-31T01:57:19;7.60;;;3.97;;
45466;SDS011;31212;49.734;8.490;2022-10-31T01:59:51;6.80;;;4.20;;
45466;SDS011;31212;49.734;8.490;2022-10-31T02:02:21;11.18;;;4.20;;
45466;SDS011;31212;49.734;8.490;2022-10-31T02:04:47;6.75;;;3.90;;
45466;SDS011;31212;49.734;8.490;2022-10-31T02:07:17;14.85;;;4.57;;
45466;SDS011;31212;49.734;8.490;2022-10-31T02:09:49;6.40;;;3.33;;
45466;SDS011;31212;49.734;8.490;2022-10-31T02:12:19;6.20;;;3.42;;
45466;SDS011;31212;49.734;8.490;2022-10-31T02:14:46;6.97;;;3.63;;
45466;SDS011;31212;49.734;8.490;2022-10-31T02:17:13;6.93;;;3.17;;
45466;SDS011;31212;49.734;8.490;2022-10-31T02:19:40;6.95;;;3.30;;
45466;SDS011;31212;49.734;8.490;2022-10-31T02:22:19;7.43;;;3.08;;
45466;SDS011;31212;49.734;8.490;2022-10-31T02:25:05;5.80;;;2.92;;
45466;SDS011;31212;49.734;8.490;2022-10-31T02:27:56;8.77;;;3.58;;
45466;SDS011;31212;49.734;8.490;2022-10-31T02:30:40;5.35;;;3.08;;
45466;SDS011;31212;49.734;8.490;2022-10-31T02:33:20;5.00;;;2.92;;
45466;SDS011;31212;49.734;8.490;2022-10-31T02:38:25;6.25;;;3.45;;
45466;SDS011;31212;49.734;8.490;2022-10-31T02:41:01;3.30;;;2.60;;
45466;SDS011;31212;49.734;8.490;2022-10-31T02:43:50;4.45;;;2.70;;
45466;SDS011;31212;49.734;8.490;2022-10-31T02:46:30;6.70;;;3.90;;
45466;SDS011;31212;49.734;8.490;2022-10-31T02:49:05;5.38;;;3.20;;
45466;SDS011;31212;49.734;8.490;2022-10-31T02:51:35;8.98;;;2.67;;
45466;SDS011;31212;49.734;8.490;2022-10-31T02:54:02;8.80;;;3.30;;
45466;SDS011;31212;49.734;8.490;2022-10-31T02:56:30;11.00;;;3.90;;
45466;SDS011;31212;49.734;8.490;2022-10-31T02:58:57;9.50;;;4.13;;
45466;SDS011;31212;49.734;8.490;2022-10-31T03:01:36;7.28;;;3.47;;
45466;SDS011;31212;49.734;8.490;2022-10-31T03:04:28;6.65;;;3.60;;
45466;SDS011;31212;49.734;8.490;2022-10-31T03:07:15;7.05;;;3.28;;
45466;SDS011;31212;49.734;8.490;2022-10-31T03:09:51;7.40;;;3.08;;
45466;SDS011;31212;49.734;8.490;2022-10-31T03:12:26;5.15;;;3.08;;
45466;SDS011;31212;49.734;8.490;2022-10-31T03:14:56;5.10;;;3.22;;
45466;SDS011;31212;49.734;8.490;2022-10-31T03:17:33;6.57;;;2.67;;
45466;SDS011;31212;49.734;8.490;2022-10-31T03:20:03;4.75;;;2.97;;
45466;SDS011;31212;49.734;8.490;2022-10-31T03:22:32;6.10;;;3.05;;
45466;SDS011;31212;49.734;8.490;2022-10-31T03:25:01;4.40;;;3.28;;
45466;SDS011;31212;49.734;8.490;2022-10-31T03:27:31;4.28;;;2.85;;
45466;SDS011;31212;49.734;8.490;2022-10-31T03:30:02;3.33;;;2.78;;
45466;SDS011;31212;49.734;8.490;2022-10-31T03:32:42;8.95;;;4.25;;
45466;SDS011;31212;49.734;8.490;2022-10-31T03:35:15;9.02;;;3.90;;
45466;SDS011;31212;49.734;8.490;2022-10-31T03:37:44;6.90;;;3.72;;
45466;SDS011;31212;49.734;8.490;2022-10-31T03:40:14;11.38;;;5.03;;
45466;SDS011;31212;49.734;8.490;2022-10-31T03:42:44;9.65;;;4.18;;
45466;SDS011;31212;49.734;8.490;2022-10-31T03:45:16;7.05;;;3.58;;
45466;SDS011;31212;49.734;8.490;2022-10-31T03:47:49;9.10;;;4.22;;
45466;SDS011;31212;49.734;8.490;2022-10-31T03:50:16;9.88;;;4.50;;
45466;SDS011;31212;49.734;8.490;2022-10-31T03:52:45;17.15;;;6.20;;
45466;SDS011;31212;49.734;8.490;2022-10-31T03:55:17;8.10;;;4.63;;
45466;SDS011;31212;49.734;8.490;2022-10-31T03:57:46;10.27;;;5.00;;
45466;SDS011;31212;49.734;8.490;2022-10-31T04:00:18;5.32;;;3.55;;
45466;SDS011;31212;49.734;8.490;2022-10-31T04:02:46;5.80;;;3.58;;
45466;SDS011;31212;49.734;8.490;2022-10-31T04:05:18;13.00;;;4.30;;
45466;SDS011;31212;49.734;8.490;2022-10-31T04:07:47;7.20;;;4.45;;
45466;SDS011;31212;49.734;8.490;2022-10-31T04:10:18;6.80;;;3.35;;
45466;SDS011;31212;49.734;8.490;2022-10-31T04:12:48;9.80;;;4.32;;
45466;SDS011;31212;49.734;8.490;2022-10-31T04:15:23;7.53;;;4.35;;
45466;SDS011;31212;49.734;8.490;2022-10-31T04:17:53;8.93;;;4.78;;
45466;SDS011;31212;49.734;8.490;2022-10-31T04:20:29;11.98;;;4.13;;
45466;SDS011;31212;49.734;8.490;2022-10-31T04:25:24;6.95;;;3.20;;
45466;SDS011;31212;49.734;8.490;2022-10-31T04:27:52;6.78;;;4.35;;
45466;SDS011;31212;49.734;8.490;2022-10-31T04:30:19;10.25;;;5.07;;
45466;SDS011;31212;49.734;8.490;2022-10-31T04:32:46;8.07;;;4.38;;
45466;SDS011;31212;49.734;8.490;2022-10-31T04:35:14;6.88;;;4.22;;
45466;SDS011;31212;49.734;8.490;2022-10-31T04:37:41;6.75;;;4.00;;
45466;SDS011;31212;49.734;8.490;2022-10-31T04:40:08;11.38;;;3.75;;
45466;SDS011;31212;49.734;8.490;2022-10-31T04:42:55;10.00;;;4.13;;
45466;SDS011;31212;49.734;8.490;2022-10-31T04:45:21;9.70;;;4.32;;
45466;SDS011;31212;49.734;8.490;2022-10-31T04:47:51;6.93;;;3.45;;
45466;SDS011;31212;49.734;8.490;2022-10-31T04:50:18;9.07;;;3.65;;
45466;SDS011;31212;49.734;8.490;2022-10-31T04:52:46;7.93;;;4.00;;
45466;SDS011;31212;49.734;8.490;2022-10-31T04:55:16;6.15;;;3.40;;
45466;SDS011;31212;49.734;8.490;2022-10-31T04:58:12;4.82;;;3.17;;
45466;SDS011;31212;49.734;8.490;2022-10-31T05:00:39;6.97;;;3.17;;
45466;SDS011;31212;49.734;8.490;2022-10-31T05:03:05;6.20;;;3.80;;
45466;SDS011;31212;49.734;8.490;2022-10-31T05:05:33;6.90;;;4.07;;
45466;SDS011;31212;49.734;8.490;2022-10-31T05:08:02;6.35;;;3.72;;
45466;SDS011;31212;49.734;8.490;2022-10-31T05:10:31;5.38;;;3.35;;
45466;SDS011;31212;49.734;8.490;2022-10-31T05:12:59;5.18;;;3.58;;
45466;SDS011;31212;49.734;8.490;2022-10-31T05:15:46;5.00;;;2.92;;
45466;SDS011;31212;49.734;8.490;2022-10-31T05:18:19;4.13;;;3.65;;
45466;SDS011;31212;49.734;8.490;2022-10-31T05:20:58;5.20;;;3.05;;
45466;SDS011;31212;49.734;8.490;2022-10-31T05:23:36;4.30;;;2.85;;
45466;SDS011;31212;49.734;8.490;2022-10-31T05:26:05;7.15;;;3.72;;
45466;SDS011;31212;49.734;8.490;2022-10-31T05:28:33;4.40;;;2.85;;
45466;SDS011;31212;49.734;8.490;2022-10-31T05:31:00;5.68;;;3.20;;
45466;SDS011;31212;49.734;8.490;2022-10-31T05:33:27;5.15;;;3.17;;
45466;SDS011;31212;49.734;8.490;2022-10-31T05:36:30;5.75;;;3.00;;
45466;SDS011;31212;49.734;8.490;2022-10-31T05:38:59;6.47;;;4.18;;
45466;SDS011;31212;49.734;8.490;2022-10-31T05:41:32;6.57;;;3.72;;
45466;SDS011;31212;49.734;8.490;2022-10-31T05:44:04;6.85;;;3.67;;
45466;SDS011;31212;49.734;8.490;2022-10-31T05:46:37;6.93;;;4.10;;
45466;SDS011;31212;49.734;8.490;2022-10-31T05:49:13;6.78;;;4.15;;
45466;SDS011;31212;49.734;8.490;2022-10-31T05:52:00;6.75;;;3.67;;
45466;SDS011;31212;49.734;8.490;2022-10-31T05:54:36;6.50;;;3.90;;
45466;SDS011;31212;49.734;8.490;2022-10-31T05:57:02;6.55;;;3.50;;
45466;SDS011;31212;49.734;8.490;2022-10-31T05:59:29;10.88;;;4.70;;
45466;SDS011;31212;49.734;8.490;2022-10-31T06:01:57;7.53;;;3.03;;
45466;SDS011;31212;49.734;8.490;2022-10-31T06:04:47;4.78;;;2.90;;
45466;SDS011;31212;49.734;8.490;2022-10-31T06:07:15;5.15;;;3.28;;
45466;SDS011;31212;49.734;8.490;2022-10-31T06:09:45;8.07;;;3.72;;
45466;SDS011;31212;49.734;8.490;2022-10-31T06:12:11;5.47;;;3.13;;
45466;SDS011;31212;49.734;8.490;2022-10-31T06:15:11;6.25;;;2.72;;
45466;SDS011;31212;49.734;8.490;2022-10-31T06:17:40;7.30;;;3.85;;
45466;SDS011;31212;49.734;8.490;2022-10-31T06:20:24;8.18;;;3.67;;
45466;SDS011;31212;49.734;8.490;2022-10-31T06:23:03;7.75;;;4.68;;
45466;SDS011;31212;49.734;8.490;2022-10-31T06:25:31;14.63;;;4.07;;
45466;SDS011;31212;49.734;8.490;2022-10-31T06:27:58;8.73;;;4.45;;
45466;SDS011;31212;49.734;8.490;2022-10-31T06:30:33;10.00;;;4.22;;
45466;SDS011;31212;49.734;8.490;2022-10-31T06:33:04;9.95;;;4.57;;
45466;SDS011;31212;49.734;8.490;2022-10-31T06:35:33;6.47;;;4.18;;
45466;SDS011;31212;49.734;8.490;2022-10-31T06:38:00;9.30;;;3.97;;
45466;SDS011;31212;49.734;8.490;2022-10-31T06:40:35;11.70;;;4.70;;
45466;SDS011;31212;49.734;8.490;2022-10-31T06:43:15;9.05;;;5.38;;
45466;SDS011;31212;49.734;8.490;2022-10-31T06:45:42;8.85;;;4.30;;
45466;SDS011;31212;49.734;8.490;2022-10-31T06:48:28;7.30;;;4.65;;
45466;SDS011;31212;49.734;8.490;2022-10-31T06:51:21;6.28;;;4.00;;
45466;SDS011;31212;49.734;8.490;2022-10-31T06:53:49;7.47;;;4.22;;
45466;SDS011;31212;49.734;8.490;2022-10-31T06:56:18;7.78;;;4.53;;
45466;SDS011;31212;49.734;8.490;2022-10-31T06:58:51;13.57;;;4.50;;
45466;SDS011;31212;49.734;8.490;2022-10-31T07:01:30;22.27;;;5.97;;
45466;SDS011;31212;49.734;8.490;2022-10-31T07:03:58;14.80;;;6.32;;
45466;SDS011;31212;49.734;8.490;2022-10-31T07:06:24;8.20;;;4.88;;
45466;SDS011;31212;49.734;8.490;2022-10-31T07:08:52;5.88;;;4.28;;
45466;SDS011;31212;49.734;8.490;2022-10-31T07:11:20;6.93;;;4.25;;
45466;SDS011;31212;49.734;8.490;2022-10-31T07:13:47;10.38;;;4.63;;
45466;SDS011;31212;49.734;8.490;2022-10-31T07:16:14;9.27;;;5.60;;
45466;SDS011;31212;49.734;8.490;2022-10-31T07:18:41;8.70;;;5.53;;
45466;SDS011;31212;49.734;8.490;2022-10-31T07:21:10;11.60;;;4.88;;
45466;SDS011;31212;49.734;8.490;2022-10-31T07:23:37;9.00;;;4.72;;
45466;SDS011;31212;49.734;8.490;2022-10-31T07:26:24;7.72;;;5.25;;
45466;SDS011;31212;49.734;8.490;2022-10-31T07:28:52;9.50;;;5.03;;
45466;SDS011;31212;49.734;8.490;2022-10-31T07:31:22;12.10;;;5.43;;
45466;SDS011;31212;49.734;8.490;2022-10-31T07:33:51;8.48;;;4.95;;
45466;SDS011;31212;49.734;8.490;2022-10-31T07:36:26;10.77;;;5.72;;
45466;SDS011;31212;49.734;8.490;2022-10-31T07:38:58;9.30;;;4.43;;
45466;SDS011;31212;49.734;8.490;2022-10-31T07:41:27;7.88;;;4.82;;
45466;SDS011;31212;49.734;8.490;2022-10-31T07:43:53;12.05;;;5.03;;
45466;SDS011;31212;49.734;8.490;2022-10-31T07:46:38;9.38;;;4.53;;
45466;SDS011;31212;49.734;8.490;2022-10-31T07:49:24;11.23;;;4.22;;
45466;SDS011;31212;49.734;8.490;2022-10-31T07:52:09;13.10;;;5.63;;
45466;SDS011;31212;49.734;8.490;2022-10-31T07:55:08;8.38;;;5.00;;
45466;SDS011;31212;49.734;8.490;2022-10-31T07:57:36;14.13;;;5.65;;
45466;SDS011;31212;49.734;8.490;2022-10-31T08:00:03;9.60;;;4.90;;
45466;SDS011;31212;49.734;8.490;2022-10-31T08:02:40;8.00;;;4.47;;
45466;SDS011;31212;49.734;8.490;2022-10-31T08:05:30;8.70;;;5.10;;
45466;SDS011;31212;49.734;8.490;2022-10-31T08:08:20;8.10;;;4.22;;
45466;SDS011;31212;49.734;8.490;2022-10-31T08:10:47;9.85;;;4.78;;
45466;SDS011;31212;49.734;8.490;2022-10-31T08:13:15;7.10;;;3.83;;
45466;SDS011;31212;49.734;8.490;2022-10-31T08:15:45;13.27;;;4.40;;
45466;SDS011;31212;49.734;8.490;2022-10-31T08:18:19;6.88;;;5.13;;
45466;SDS011;31212;49.734;8.490;2022-10-31T08:20:47;11.60;;;6.50;;
45466;SDS011;31212;49.734;8.490;2022-10-31T08:23:13;19.63;;;5.70;;
45466;SDS011;31212;49.734;8.490;2022-10-31T08:25:42;9.05;;;4.45;;
45466;SDS011;31212;49.734;8.490;2022-10-31T08:28:08;8.90;;;5.07;;
45466;SDS011;31212;49.734;8.490;2022-10-31T08:30:41;11.40;;;4.63;;
45466;SDS011;31212;49.734;8.490;2022-10-31T08:33:26;9.02;;;4.47;;
45466;SDS011;31212;49.734;8.490;2022-10-31T08:36:11;15.05;;;5.20;;
45466;SDS011;31212;49.734;8.490;2022-10-31T08:38:56;11.88;;;4.85;;
45466;SDS011;31212;49.734;8.490;2022-10-31T08:41:23;8.73;;;4.75;;
45466;SDS011;31212;49.734;8.490;2022-10-31T08:43:49;9.07;;;4.53;;
45466;SDS011;31212;49.734;8.490;2022-10-31T08:46:17;10.55;;;4.45;;
45466;SDS011;31212;49.734;8.490;2022-10-31T08:48:44;10.75;;;4.70;;
45466;SDS011;31212;49.734;8.490;2022-10-31T08:51:15;7.03;;;4.72;;
45466;SDS011;31212;49.734;8.490;2022-10-31T08:53:42;7.82;;;4.18;;
45466;SDS011;31212;49.734;8.490;2022-10-31T08:56:31;10.05;;;4.63;;
45466;SDS011;31212;49.734;8.490;2022-10-31T08:58:59;13.35;;;4.82;;
45466;SDS011;31212;49.734;8.490;2022-10-31T09:01:57;6.95;;;4.18;;
45466;SDS011;31212;49.734;8.490;2022-10-31T09:04:24;13.48;;;4.47;;
45466;SDS011;31212;49.734;8.490;2022-10-31T09:06:51;8.65;;;4.65;;
45466;SDS011;31212;49.734;8.490;2022-10-31T09:09:17;11.15;;;4.10;;
45466;SDS011;31212;49.734;8.490;2022-10-31T09:11:44;7.47;;;3.90;;
45466;SDS011;31212;49.734;8.490;2022-10-31T09:14:10;7.72;;;4.20;;
45466;SDS011;31212;49.734;8.490;2022-10-31T09:17:13;6.25;;;3.45;;
45466;SDS011;31212;49.734;8.490;2022-10-31T09:20:00;7.72;;;4.45;;
45466;SDS011;31212;49.734;8.490;2022-10-31T09:22:32;11.68;;;3.90;;
45466;SDS011;31212;49.734;8.490;2022-10-31T09:24:59;5.70;;;3.67;;
45466;SDS011;31212;49.734;8.490;2022-10-31T09:27:26;7.68;;;4.95;;
45466;SDS011;31212;49.734;8.490;2022-10-31T09:29:55;7.20;;;4.10;;
45466;SDS011;31212;49.734;8.490;2022-10-31T09:32:23;5.20;;;3.25;;
45466;SDS011;31212;49.734;8.490;2022-10-31T09:34:50;7.53;;;4.55;;
45466;SDS011;31212;49.734;8.490;2022-10-31T09:37:19;7.90;;;3.72;;
45466;SDS011;31212;49.734;8.490;2022-10-31T09:39:45;11.27;;;4.95;;
45466;SDS011;31212;49.734;8.490;2022-10-31T09:42:24;7.28;;;4.65;;
45466;SDS011;31212;49.734;8.490;2022-10-31T09:45:07;6.88;;;4.82;;
45466;SDS011;31212;49.734;8.490;2022-10-31T09:47:48;12.05;;;4.75;;
45466;SDS011;31212;49.734;8.490;2022-10-31T09:50:33;9.27;;;4.60;;
45466;SDS011;31212;49.734;8.490;2022-10-31T09:56:04;10.02;;;4.05;;
45466;SDS011;31212;49.734;8.490;2022-10-31T09:58:34;7.93;;;4.15;;
45466;SDS011;31212;49.734;8.490;2022-10-31T10:01:09;8.05;;;4.47;;
45466;SDS011;31212;49.734;8.490;2022-10-31T10:03:46;6.32;;;4.13;;
45466;SDS011;31212;49.734;8.490;2022-10-31T10:06:44;9.15;;;3.83;;
45466;SDS011;31212;49.734;8.490;2022-10-31T10:09:31;9.75;;;4.10;;
45466;SDS011;31212;49.734;8.490;2022-10-31T10:12:28;11.20;;;3.75;;
45466;SDS011;31212;49.734;8.490;2022-10-31T10:15:16;8.07;;;4.15;;
45466;SDS011;31212;49.734;8.490;2022-10-31T10:17:55;9.88;;;4.93;;
45466;SDS011;31212;49.734;8.490;2022-10-31T10:20:31;8.02;;;4.63;;
45466;SDS011;31212;49.734;8.490;2022-10-31T10:23:11;6.85;;;4.35;;
45466;SDS011;31212;49.734;8.490;2022-10-31T10:25:49;6.25;;;4.28;;
45466;SDS011;31212;49.734;8.490;2022-10-31T10:28:21;15.93;;;4.00;;
45466;SDS011;31212;49.734;8.490;2022-10-31T10:30:53;8.60;;;4.28;;
45466;SDS011;31212;49.734;8.490;2022-10-31T10:33:25;9.02;;;4.65;;
45466;SDS011;31212;49.734;8.490;2022-10-31T10:36:00;12.73;;;5.47;;
45466;SDS011;31212;49.734;8.490;2022-10-31T10:38:31;7.00;;;4.28;;
45466;SDS011;31212;49.734;8.490;2022-10-31T10:41:01;11.60;;;4.32;;
45466;SDS011;31212;49.734;8.490;2022-10-31T10:43:32;11.23;;;4.05;;
45466;SDS011;31212;49.734;8.490;2022-10-31T10:46:13;6.95;;;4.32;;
45466;SDS011;31212;49.734;8.490;2022-10-31T10:49:04;10.27;;;3.78;;
45466;SDS011;31212;49.734;8.490;2022-10-31T10:51:57;9.93;;;4.43;;
45466;SDS011;31212;49.734;8.490;2022-10-31T10:54:34;9.93;;;4.70;;
45466;SDS011;31212;49.734;8.490;2022-10-31T10:57:11;9.65;;;4.68;;
45466;SDS011;31212;49.734;8.490;2022-10-31T10:59:48;8.30;;;4.50;;
45466;SDS011;31212;49.734;8.490;2022-10-31T11:02:16;17.42;;;4.93;;
45466;SDS011;31212;49.734;8.490;2022-10-31T11:04:44;5.30;;;3.70;;
45466;SDS011;31212;49.734;8.490;2022-10-31T11:07:14;10.95;;;5.18;;
45466;SDS011;31212;49.734;8.490;2022-10-31T11:09:41;5.85;;;3.63;;
45466;SDS011;31212;49.734;8.490;2022-10-31T11:12:08;11.50;;;4.82;;
45466;SDS011;31212;49.734;8.490;2022-10-31T11:14:42;10.45;;;4.95;;
45466;SDS011;31212;49.734;8.490;2022-10-31T11:17:16;7.35;;;4.00;;
45466;SDS011;31212;49.734;8.490;2022-10-31T11:19:46;9.48;;;3.63;;
45466;SDS011;31212;49.734;8.490;2022-10-31T11:22:16;6.00;;;3.92;;
45466;SDS011;31212;49.734;8.490;2022-10-31T11:24:43;15.20;;;4.63;;
45466;SDS011;31212;49.734;8.490;2022-10-31T11:27:14;11.25;;;4.38;;
45466;SDS011;31212;49.734;8.490;2022-10-31T11:29:42;7.05;;;4.20;;
45466;SDS011;31212;49.734;8.490;2022-10-31T11:32:15;13.60;;;5.85;;
45466;SDS011;31212;49.734;8.490;2022-10-31T11:34:46;8.55;;;5.25;;
45466;SDS011;31212;49.734;8.490;2022-10-31T11:37:18;10.82;;;4.85;;
45466;SDS011;31212;49.734;8.490;2022-10-31T11:39:48;8.00;;;4.68;;
45466;SDS011;31212;49.734;8.490;2022-10-31T11:42:19;9.57;;;3.85;;
45466;SDS011;31212;49.734;8.490;2022-10-31T11:44:48;8.90;;;4.03;;
45466;SDS011;31212;49.734;8.490;2022-10-31T11:47:18;9.48;;;3.72;;
45466;SDS011;31212;49.734;8.490;2022-10-31T11:49:51;15.25;;;4.53;;
45466;SDS011;31212;49.734;8.490;2022-10-31T11:52:20;8.70;;;3.92;;
45466;SDS011;31212;49.734;8.490;2022-10-31T11:54:51;8.75;;;4.30;;
45466;SDS011;31212;49.734;8.490;2022-10-31T11:57:24;7.00;;;4.18;;
45466;SDS011;31212;49.734;8.490;2022-10-31T11:59:53;20.65;;;4.43;;
45466;SDS011;31212;49.734;8.490;2022-10-31T12:02:21;8.65;;;4.07;;
45466;SDS011;31212;49.734;8.490;2022-10-31T12:04:50;10.55;;;3.85;;
45466;SDS011;31212;49.734;8.490;2022-10-31T12:07:25;8.45;;;3.95;;
45466;SDS011;31212;49.734;8.490;2022-10-31T12:09:52;5.80;;;3.88;;
45466;SDS011;31212;49.734;8.490;2022-10-31T12:15:22;9.10;;;3.60;;
45466;SDS011;31212;49.734;8.490;2022-10-31T12:17:58;11.35;;;3.70;;
45466;SDS011;31212;49.734;8.490;2022-10-31T12:20:38;8.02;;;3.42;;
45466;SDS011;31212;49.734;8.490;2022-10-31T12:23:18;8.55;;;3.55;;
45466;SDS011;31212;49.734;8.490;2022-10-31T12:25:53;6.00;;;2.85;;
45466;SDS011;31212;49.734;8.490;2022-10-31T12:28:39;8.13;;;2.80;;
45466;SDS011;31212;49.734;8.490;2022-10-31T12:31:22;6.35;;;3.53;;
45466;SDS011;31212;49.734;8.490;2022-10-31T12:34:00;9.80;;;2.92;;
45466;SDS011;31212;49.734;8.490;2022-10-31T12:36:41;9.13;;;2.90;;
45466;SDS011;31212;49.734;8.490;2022-10-31T12:39:23;8.68;;;3.45;;
45466;SDS011;31212;49.734;8.490;2022-10-31T12:41:52;7.20;;;3.72;;
45466;SDS011;31212;49.734;8.490;2022-10-31T12:44:30;6.75;;;3.60;;
45466;SDS011;31212;49.734;8.490;2022-10-31T12:47:12;6.28;;;2.97;;
45466;SDS011;31212;49.734;8.490;2022-10-31T12:49:54;9.50;;;2.83;;
45466;SDS011;31212;49.734;8.490;2022-10-31T12:52:32;12.85;;;3.28;;
45466;SDS011;31212;49.734;8.490;2022-10-31T12:55:14;8.25;;;2.72;;
45466;SDS011;31212;49.734;8.490;2022-10-31T12:57:52;6.38;;;3.55;;
45466;SDS011;31212;49.734;8.490;2022-10-31T13:00:24;6.28;;;3.08;;
45466;SDS011;31212;49.734;8.490;2022-10-31T13:02:55;5.97;;;2.55;;
45466;SDS011;31212;49.734;8.490;2022-10-31T13:05:27;5.40;;;2.85;;
45466;SDS011;31212;49.734;8.490;2022-10-31T13:07:57;12.40;;;3.27;;
45466;SDS011;31212;49.734;8.490;2022-10-31T13:10:29;5.65;;;3.30;;
45466;SDS011;31212;49.734;8.490;2022-10-31T13:13:07;4.32;;;2.90;;
45466;SDS011;31212;49.734;8.490;2022-10-31T13:15:44;6.18;;;3.38;;
45466;SDS011;31212;49.734;8.490;2022-10-31T13:18:16;8.25;;;2.90;;
45466;SDS011;31212;49.734;8.490;2022-10-31T13:20:50;9.13;;;3.83;;
45466;SDS011;31212;49.734;8.490;2022-10-31T13:23:21;8.82;;;3.25;;
45466;SDS011;31212;49.734;8.490;2022-10-31T13:25:55;6.55;;;2.83;;
45466;SDS011;31212;49.734;8.490;2022-10-31T13:28:26;8.88;;;3.30;;
45466;SDS011;31212;49.734;8.490;2022-10-31T13:30:59;6.00;;;2.88;;
45466;SDS011;31212;49.734;8.490;2022-10-31T13:33:27;7.00;;;3.33;;
45466;SDS011;31212;49.734;8.490;2022-10-31T13:36:03;6.82;;;2.75;;
45466;SDS011;31212;49.734;8.490;2022-10-31T13:38:41;5.78;;;3.60;;
45466;SDS011;31212;49.734;8.490;2022-10-31T13:41:17;8.25;;;2.72;;
45466;SDS011;31212;49.734;8.490;2022-10-31T13:46:26;6.25;;;3.22;;
45466;SDS011;31212;49.734;8.490;2022-10-31T13:49:01;15.55;;;3.97;;
45466;SDS011;31212;49.734;8.490;2022-10-31T13:51:29;4.78;;;2.97;;
45466;SDS011;31212;49.734;8.490;2022-10-31T13:53:58;25.73;;;4.28;;
45466;SDS011;31212;49.734;8.490;2022-10-31T13:56:27;8.43;;;3.58;;
45466;SDS011;31212;49.734;8.490;2022-10-31T13:59:04;10.10;;;3.17;;
45466;SDS011;31212;49.734;8.490;2022-10-31T14:01:48;6.68;;;3.40;;
45466;SDS011;31212;49.734;8.490;2022-10-31T14:04:18;8.23;;;3.38;;
45466;SDS011;31212;49.734;8.490;2022-10-31T14:06:52;10.60;;;3.20;;
45466;SDS011;31212;49.734;8.490;2022-10-31T14:09:28;8.00;;;3.20;;
45466;SDS011;31212;49.734;8.490;2022-10-31T14:11:59;8.18;;;3.33;;
45466;SDS011;31212;49.734;8.490;2022-10-31T14:14:30;12.25;;;3.10;;
45466;SDS011;31212;49.734;8.490;2022-10-31T14:19:28;5.40;;;2.65;;
45466;SDS011;31212;49.734;8.490;2022-10-31T14:21:55;5.10;;;2.85;;
45466;SDS011;31212;49.734;8.490;2022-10-31T14:24:35;5.50;;;3.67;;
45466;SDS011;31212;49.734;8.490;2022-10-31T14:27:30;7.43;;;3.05;;
45466;SDS011;31212;49.734;8.490;2022-10-31T14:30:15;5.72;;;2.85;;
45466;SDS011;31212;49.734;8.490;2022-10-31T14:32:43;7.25;;;3.53;;
45466;SDS011;31212;49.734;8.490;2022-10-31T14:35:13;13.00;;;3.65;;
45466;SDS011;31212;49.734;8.490;2022-10-31T14:37:50;9.13;;;3.42;;
45466;SDS011;31212;49.734;8.490;2022-10-31T14:40:27;9.07;;;3.65;;
45466;SDS011;31212;49.734;8.490;2022-10-31T14:43:20;9.23;;;3.08;;
45466;SDS011;31212;49.734;8.490;2022-10-31T14:45:59;6.25;;;2.80;;
45466;SDS011;31212;49.734;8.490;2022-10-31T14:48:38;6.95;;;3.47;;
45466;SDS011;31212;49.734;8.490;2022-10-31T14:51:19;4.13;;;2.78;;
45466;SDS011;31212;49.734;8.490;2022-10-31T14:53:47;5.80;;;3.35;;
45466;SDS011;31212;49.734;8.490;2022-10-31T14:56:19;7.60;;;3.10;;
45466;SDS011;31212;49.734;8.490;2022-10-31T14:58:50;6.60;;;3.38;;
45466;SDS011;31212;49.734;8.490;2022-10-31T15:01:20;7.40;;;3.08;;
45466;SDS011;31212;49.734;8.490;2022-10-31T15:03:51;8.10;;;3.05;;
45466;SDS011;31212;49.734;8.490;2022-10-31T15:06:19;14.05;;;3.63;;
45466;SDS011;31212;49.734;8.490;2022-10-31T15:08:48;4.82;;;3.55;;
45466;SDS011;31212;49.734;8.490;2022-10-31T15:11:17;8.43;;;3.33;;
45466;SDS011;31212;49.734;8.490;2022-10-31T15:13:45;5.80;;;3.15;;
45466;SDS011;31212;49.734;8.490;2022-10-31T15:16:15;5.05;;;3.15;;
45466;SDS011;31212;49.734;8.490;2022-10-31T15:18:46;7.65;;;3.17;;
45466;SDS011;31212;49.734;8.490;2022-10-31T15:21:15;7.90;;;3.30;;
45466;SDS011;31212;49.734;8.490;2022-10-31T15:23:43;8.52;;;3.50;;
45466;SDS011;31212;49.734;8.490;2022-10-31T15:26:11;3.92;;;3.17;;
45466;SDS011;31212;49.734;8.490;2022-10-31T15:28:43;5.43;;;3.60;;
45466;SDS011;31212;49.734;8.490;2022-10-31T15:31:12;12.50;;;2.70;;
45466;SDS011;31212;49.734;8.490;2022-10-31T15:33:42;5.82;;;3.22;;
45466;SDS011;31212;49.734;8.490;2022-10-31T15:36:17;7.55;;;3.10;;